Time;durP1;ratioP1;P1;durP2;ratioP2;P2;SDS_P1;SDS_P2;PMS_P1;PMS_P2;Temp;Humidity;BMP_temperature;BMP_pressure;BME280_temperature;BME280_humidity;BME280_pressure;Samples;Min_cycle;Max_cycle;Signal;HPM_P1;HPM_P2
2021/07/13 00:01:16;;;;;;;;;;;19.90;99.90;;;;;;3916197;23;20857;-78
2021/07/13 00:03:45;;;;;;;;;;;19.90;99.90;;;;;;3856916;23;20687;31
2021/07/13 00:06:38;;;;;;;;;;;19.80;99.90;;;;;;2044516;22;19936;-79
2021/07/13 00:09:08;;;;;;;;;;;19.80;99.90;;;;;;3991301;23;20023;31
2021/07/13 00:11:36;;;;;;;;;;;19.80;99.90;;;;;;1891853;22;20063;-78
2021/07/13 00:14:10;;;;;;;;;;;19.70;99.90;;;;;;2078023;23;20160;-79
2021/07/13 00:17:02;;;;;;;;;;;19.70;99.90;;;;;;3701448;23;19936;-80
2021/07/13 00:19:54;;;;;;;;;;;19.60;99.90;;;;;;2044435;23;20269;-80
2021/07/13 00:22:24;;;;;;;;;;;19.60;99.90;;;;;;3775852;23;19935;-78
2021/07/13 00:28:12;;;;;;;;;;;19.60;99.90;;;;;;2043379;23;19932;-79
2021/07/13 00:30:42;;;;;;;;;;;19.60;99.90;;;;;;3995489;23;20403;-79
2021/07/13 00:33:14;;;;;;;;;;;19.60;99.90;;;;;;3976824;23;19976;-79
2021/07/13 00:35:43;;;;;;;;;;;19.60;99.90;;;;;;1592064;23;20080;-80
2021/07/13 00:38:36;;;;;;;;;;;19.50;99.90;;;;;;2047236;23;19936;-79
2021/07/13 00:41:04;;;;;;;;;;;19.50;99.90;;;;;;3997972;23;20648;31
2021/07/13 00:43:57;;;;;;;;;;;19.40;99.90;;;;;;2047170;23;19998;-80
2021/07/13 00:46:27;;;;;;;;;;;19.40;99.90;;;;;;3809760;23;19933;-80
2021/07/13 00:52:07;;;;;;;;;;;19.40;99.90;;;;;;3996021;23;20522;-80
2021/07/13 00:54:39;;;;;;;;;;;19.30;99.90;;;;;;2041503;23;20090;-79
2021/07/13 00:57:31;;;;;;;;;;;19.30;99.90;;;;;;2043723;23;19942;-78
2021/07/13 01:00:23;;;;;;;;;;;19.20;99.90;;;;;;2038440;23;20774;-79
2021/07/13 01:02:56;;;;;;;;;;;19.20;99.90;;;;;;3861016;23;20893;31
2021/07/13 01:05:26;;;;;;;;;;;19.20;99.90;;;;;;3957065;23;20637;31
2021/07/13 01:08:18;;;;;;;;;;;19.10;99.90;;;;;;2040493;22;20053;-80
2021/07/13 01:11:00;;;;;;;;;;;19.10;99.90;;;;;;3775752;23;19944;-80
2021/07/13 01:13:52;;;;;;;;;;;19.10;99.90;;;;;;1442008;23;21446;-78
2021/07/13 01:16:44;;;;;;;;;;;19.00;99.90;;;;;;2033410;23;19942;-77
2021/07/13 01:19:20;;;;;;;;;;;19.00;99.90;;;;;;1290190;23;20147;-78
2021/07/13 01:22:13;;;;;;;;;;;18.90;99.90;;;;;;2045207;23;20053;-79
2021/07/13 01:24:49;;;;;;;;;;;18.90;99.90;;;;;;3807868;23;19933;-79
2021/07/13 01:27:41;;;;;;;;;;;18.80;99.90;;;;;;2043999;23;20068;-78
2021/07/13 01:30:34;;;;;;;;;;;18.80;99.90;;;;;;3921508;23;20049;-81
2021/07/13 01:33:16;;;;;;;;;;;18.80;99.90;;;;;;3789558;23;19944;31
2021/07/13 01:35:51;;;;;;;;;;;18.80;99.90;;;;;;1971945;23;21885;-80
2021/07/13 01:38:25;;;;;;;;;;;18.70;99.90;;;;;;4027120;23;19929;-80
2021/07/13 01:40:59;;;;;;;;;;;18.70;99.90;;;;;;3958821;23;19995;-78
2021/07/13 01:43:54;;;;;;;;;;;18.70;99.90;;;;;;2036059;23;19947;-79
2021/07/13 01:46:46;;;;;;;;;;;18.60;99.90;;;;;;3884773;23;19925;-79
2021/07/13 01:49:38;;;;;;;;;;;18.60;99.90;;;;;;2035351;23;20023;-78
2021/07/13 01:52:06;;;;;;;;;;;18.60;99.90;;;;;;3800464;23;19965;-79
2021/07/13 01:57:36;;;;;;;;;;;18.50;99.90;;;;;;3980800;23;19930;-81
2021/07/13 02:00:28;;;;;;;;;;;18.40;99.90;;;;;;3990917;23;19941;-80
2021/07/13 02:02:57;;;;;;;;;;;18.40;99.90;;;;;;2040629;23;20349;-79
2021/07/13 02:05:49;;;;;;;;;;;18.40;99.90;;;;;;2047113;23;20656;-79
2021/07/13 02:08:16;;;;;;;;;;;18.30;99.90;;;;;;3808007;23;19948;-78
2021/07/13 02:13:52;;;;;;;;;;;18.30;99.90;;;;;;3836457;23;19957;-80
2021/07/13 02:19:15;;;;;;;;;;;18.20;99.90;;;;;;3909624;23;19949;-82
2021/07/13 02:21:44;;;;;;;;;;;18.20;99.90;;;;;;1913822;23;21086;31
2021/07/13 02:24:12;;;;;;;;;;;18.20;99.90;;;;;;3886509;23;19974;-81
2021/07/13 02:26:47;;;;;;;;;;;18.20;99.90;;;;;;2081673;23;20103;-79
2021/07/13 02:29:18;;;;;;;;;;;18.10;99.90;;;;;;3881731;23;19932;-80
2021/07/13 02:32:10;;;;;;;;;;;18.10;99.90;;;;;;2037932;23;19955;-79
2021/07/13 02:34:41;;;;;;;;;;;18.10;99.90;;;;;;3982938;23;19929;-79
2021/07/13 02:37:13;;;;;;;;;;;18.10;99.90;;;;;;3972492;23;19943;-79
2021/07/13 02:40:05;;;;;;;;;;;18.00;99.90;;;;;;2046790;23;19932;-79
2021/07/13 02:42:33;;;;;;;;;;;18.10;99.90;;;;;;3771817;23;19933;-80
2021/07/13 02:45:26;;;;;;;;;;;18.00;99.90;;;;;;3765642;23;20654;-80
2021/07/13 02:48:03;;;;;;;;;;;18.00;99.90;;;;;;3697749;23;19936;-79
2021/07/13 02:53:29;;;;;;;;;;;18.00;99.90;;;;;;3724984;23;20034;31
2021/07/13 02:55:57;;;;;;;;;;;18.00;99.90;;;;;;3619861;23;20247;-82
2021/07/13 03:01:34;;;;;;;;;;;17.90;99.90;;;;;;3987963;23;19986;-80
2021/07/13 03:07:08;;;;;;;;;;;17.90;99.90;;;;;;3737535;23;19925;-81
2021/07/13 03:09:43;;;;;;;;;;;17.90;99.90;;;;;;3616966;23;19925;-80
2021/07/13 03:12:10;;;;;;;;;;;17.90;99.90;;;;;;1962654;23;20086;-82
2021/07/13 03:14:39;;;;;;;;;;;17.90;99.90;;;;;;3714599;23;19979;-79
2021/07/13 03:19:54;;;;;;;;;;;17.90;99.90;;;;;;3663597;23;19941;-81
2021/07/13 03:28:19;;;;;;;;;;;17.80;99.90;;;;;;3884849;23;19933;-79
2021/07/13 03:31:11;;;;;;;;;;;17.80;99.90;;;;;;3880223;23;20020;-80
2021/07/13 03:33:41;;;;;;;;;;;17.90;99.90;;;;;;3878297;23;20530;-79
2021/07/13 03:36:17;;;;;;;;;;;17.90;99.90;;;;;;3918636;23;20014;-80
2021/07/13 03:38:48;;;;;;;;;;;17.90;99.90;;;;;;1589177;23;20068;-79
2021/07/13 03:41:18;;;;;;;;;;;17.90;99.90;;;;;;1607761;23;20296;-80
2021/07/13 03:46:49;;;;;;;;;;;18.10;99.90;;;;;;3810313;23;21233;-80
2021/07/13 03:49:17;;;;;;;;;;;18.20;99.90;;;;;;3647821;23;21067;-80
2021/07/13 03:51:45;;;;;;;;;;;18.30;99.90;;;;;;1836390;23;20772;31
2021/07/13 03:54:39;;;;;;;;;;;18.40;99.90;;;;;;2048683;23;19938;-79
2021/07/13 03:57:15;;;;;;;;;;;18.60;99.90;;;;;;3726569;23;19961;-80
2021/07/13 03:59:44;;;;;;;;;;;18.70;99.90;;;;;;3721396;23;19937;-78
2021/07/13 04:02:37;;;;;;;;;;;18.80;99.90;;;;;;3800191;23;20367;-78
2021/07/13 04:05:10;;;;;;;;;;;18.90;99.90;;;;;;3764460;23;20354;-79
2021/07/13 04:08:03;;;;;;;;;;;19.00;99.90;;;;;;3796452;23;19952;-79
2021/07/13 04:13:16;;;;;;;;;;;19.30;99.90;;;;;;3810907;23;19941;-79
2021/07/13 04:15:47;;;;;;;;;;;19.50;99.90;;;;;;1736421;23;20165;-79
2021/07/13 04:21:27;;;;;;;;;;;19.70;99.90;;;;;;3849505;23;19994;-81
2021/07/13 04:23:57;;;;;;;;;;;19.90;99.90;;;;;;3684970;23;19932;-80
2021/07/13 04:26:28;;;;;;;;;;;20.00;99.90;;;;;;3715937;23;19937;-80
2021/07/13 04:28:55;;;;;;;;;;;20.00;99.90;;;;;;3580760;40;20319;-80
2021/07/13 04:34:43;;;;;;;;;;;20.20;99.90;;;;;;3701911;23;20261;-79
2021/07/13 04:37:11;;;;;;;;;;;20.40;99.90;;;;;;1670503;23;22260;-79
2021/07/13 04:40:04;;;;;;;;;;;20.60;99.90;;;;;;3799531;23;19921;-79
2021/07/13 04:42:32;;;;;;;;;;;20.80;99.90;;;;;;3645403;23;19925;-79
2021/07/13 04:45:00;;;;;;;;;;;20.90;99.90;;;;;;3549755;40;19938;-79
2021/07/13 04:47:27;;;;;;;;;;;21.00;99.90;;;;;;3531709;40;19935;-77
2021/07/13 04:49:56;;;;;;;;;;;21.20;99.90;;;;;;3533313;40;19943;-79
2021/07/13 04:58:53;;;;;;;;;;;21.50;99.90;;;;;;3730273;23;19939;-80
2021/07/13 05:07:04;;;;;;;;;;;22.10;99.90;;;;;;3724174;23;19925;31
2021/07/13 05:09:40;;;;;;;;;;;22.30;99.90;;;;;;3640103;22;20113;-80
2021/07/13 05:15:08;;;;;;;;;;;22.40;99.90;;;;;;3618576;23;19937;-78
2021/07/13 05:20:17;;;;;;;;;;;22.60;99.90;;;;;;3591405;40;19928;-79
2021/07/13 05:25:44;;;;;;;;;;;22.80;99.90;;;;;;3600653;40;19935;-79
2021/07/13 05:28:11;;;;;;;;;;;23.00;99.90;;;;;;3591399;40;19941;-81
2021/07/13 05:30:43;;;;;;;;;;;23.00;99.90;;;;;;3719288;23;19929;-81
2021/07/13 05:33:16;;;;;;;;;;;23.10;99.90;;;;;;1898290;23;20063;-80
2021/07/13 05:38:32;;;;;;;;;;;23.20;99.90;;;;;;3572291;40;19934;-80
2021/07/13 05:44:07;;;;;;;;;;;23.30;99.90;;;;;;3582568;40;19945;-80
2021/07/13 05:46:36;;;;;;;;;;;23.30;99.90;;;;;;3583510;40;19933;-79
2021/07/13 05:49:05;;;;;;;;;;;23.30;99.90;;;;;;3573078;40;19936;-84
2021/07/13 05:57:16;;;;;;;;;;;23.70;99.90;;;;;;3572649;40;19933;-78
2021/07/13 05:59:43;;;;;;;;;;;23.90;99.90;;;;;;3553314;40;19934;-80
2021/07/13 06:05:48;;;;;;;;;;;24.30;99.90;;;;;;3700591;23;19929;-79
2021/07/13 06:08:17;;;;;;;;;;;24.40;99.90;;;;;;3728123;23;19958;-81
2021/07/13 06:13:33;;;;;;;;;;;24.60;99.90;;;;;;3722805;23;19925;31
2021/07/13 06:18:42;;;;;;;;;;;24.70;99.90;;;;;;3779817;23;19941;31
2021/07/13 06:21:35;;;;;;;;;;;24.70;99.90;;;;;;3934250;23;20547;-80
2021/07/13 06:24:27;;;;;;;;;;;24.80;99.90;;;;;;1518034;23;19932;-79
2021/07/13 06:27:02;;;;;;;;;;;24.90;99.90;;;;;;3634065;23;19925;-80
2021/07/13 06:29:37;;;;;;;;;;;25.10;99.90;;;;;;3671162;23;20275;-79
2021/07/13 06:32:29;;;;;;;;;;;25.20;99.90;;;;;;3654165;22;20181;-79
2021/07/13 06:34:58;;;;;;;;;;;25.50;99.90;;;;;;2029497;23;20191;31
2021/07/13 06:37:28;;;;;;;;;;;25.60;99.90;;;;;;3844830;22;19952;-80
2021/07/13 06:39:55;;;;;;;;;;;25.90;99.90;;;;;;1440731;23;20113;-80
2021/07/13 06:42:48;;;;;;;;;;;26.00;99.90;;;;;;2046834;23;19931;-80
2021/07/13 06:45:15;;;;;;;;;;;26.20;99.90;;;;;;3817787;23;19928;31
2021/07/13 06:47:53;;;;;;;;;;;26.40;99.90;;;;;;2054310;23;20077;-79
2021/07/13 06:50:27;;;;;;;;;;;26.50;99.90;;;;;;1744078;23;20179;-80
2021/07/13 06:55:58;;;;;;;;;;;26.70;99.90;;;;;;4001834;22;19925;-79
2021/07/13 06:58:35;;;;;;;;;;;27.00;99.90;;;;;;3940059;23;19960;-81
2021/07/13 07:01:28;;;;;;;;;;;27.00;99.90;;;;;;3809908;22;19928;-78
2021/07/13 07:04:02;;;;;;;;;;;27.20;99.90;;;;;;1552572;22;21386;31
2021/07/13 07:06:33;;;;;;;;;;;27.30;99.90;;;;;;1885712;23;20067;-78
2021/07/13 07:12:24;;;;;;;;;;;27.60;99.90;;;;;;2048606;22;20345;-81
2021/07/13 07:15:16;;;;;;;;;;;27.90;99.90;;;;;;3846736;23;19927;-81
2021/07/13 07:18:09;;;;;;;;;;;28.00;99.90;;;;;;3631952;23;19976;-81
2021/07/13 07:20:37;;;;;;;;;;;28.00;99.90;;;;;;3972122;22;19968;31
2021/07/13 07:26:05;;;;;;;;;;;28.10;99.90;;;;;;3992123;23;19937;-81
2021/07/13 07:31:52;;;;;;;;;;;28.20;99.90;;;;;;2054679;22;20090;-81
2021/07/13 07:34:21;;;;;;;;;;;28.30;99.90;;;;;;1504319;23;20186;31
2021/07/13 07:36:50;;;;;;;;;;;28.30;99.90;;;;;;1665946;23;20150;-80
2021/07/13 07:39:42;;;;;;;;;;;28.40;99.90;;;;;;2058534;22;19942;-81
2021/07/13 07:42:19;;;;;;;;;;;28.40;99.90;;;;;;3657137;23;19925;-81
2021/07/13 07:45:12;;;;;;;;;;;28.60;99.90;;;;;;2046110;22;20968;-82
2021/07/13 07:47:40;;;;;;;;;;;28.70;99.90;;;;;;3762739;22;20825;31
2021/07/13 07:50:33;;;;;;;;;;;28.90;99.90;;;;;;2049165;23;19950;-83
2021/07/13 07:56:20;;;;;;;;;;;29.10;99.90;;;;;;2056630;22;19932;-81
2021/07/13 07:58:52;;;;;;;;;;;29.20;99.90;;;;;;3780865;23;19948;-83
2021/07/13 08:01:44;;;;;;;;;;;29.30;99.90;;;;;;2039469;23;19962;-83
2021/07/13 08:04:12;;;;;;;;;;;29.30;99.90;;;;;;3805551;23;19925;-80
2021/07/13 08:06:46;;;;;;;;;;;29.30;99.90;;;;;;2045654;22;19932;-81
2021/07/13 08:09:39;;;;;;;;;;;29.30;99.90;;;;;;4022621;23;21011;-81
2021/07/13 08:12:07;;;;;;;;;;;29.40;99.90;;;;;;3930223;22;19944;-83
2021/07/13 08:14:39;;;;;;;;;;;29.40;99.90;;;;;;4071666;22;19929;-82
2021/07/13 08:17:13;;;;;;;;;;;29.60;99.90;;;;;;1828764;22;20118;-79
2021/07/13 08:19:41;;;;;;;;;;;29.70;99.90;;;;;;3978072;22;20046;-81
2021/07/13 08:22:08;;;;;;;;;;;29.90;99.90;;;;;;3858019;23;19925;-82
2021/07/13 08:24:39;;;;;;;;;;;29.90;99.90;;;;;;2051068;23;20169;-81
2021/07/13 08:27:33;;;;;;;;;;;29.90;99.90;;;;;;2043280;22;19936;-82
2021/07/13 08:30:01;;;;;;;;;;;29.90;99.90;;;;;;3970762;22;19924;-80
2021/07/13 08:32:55;;;;;;;;;;;30.10;99.90;;;;;;2045828;23;19946;-83
2021/07/13 08:38:27;;;;;;;;;;;30.00;99.90;;;;;;3773807;23;20845;-82
2021/07/13 08:41:20;;;;;;;;;;;30.10;99.90;;;;;;2053508;22;19994;-81
2021/07/13 08:46:54;;;;;;;;;;;30.30;99.90;;;;;;3951424;22;19924;31
2021/07/13 08:49:48;;;;;;;;;;;30.40;99.90;;;;;;2052419;22;20845;-82
2021/07/13 08:52:17;;;;;;;;;;;30.30;99.90;;;;;;4039484;22;19947;-82
2021/07/13 09:00:31;;;;;;;;;;;30.60;99.90;;;;;;2124428;23;20101;-81
2021/07/13 09:03:07;;;;;;;;;;;30.50;99.90;;;;;;3954695;22;19932;-83
2021/07/13 09:05:40;;;;;;;;;;;30.60;99.90;;;;;;2057058;22;20088;-81
2021/07/13 09:08:21;;;;;;;;;;;30.70;99.90;;;;;;2053063;22;20220;-81
2021/07/13 09:13:49;;;;;;;;;;;30.90;99.90;;;;;;2016546;22;20118;31
2021/07/13 09:16:18;;;;;;;;;;;30.90;99.90;;;;;;3904410;23;19928;-81
2021/07/13 09:19:11;;;;;;;;;;;30.90;99.90;;;;;;3956048;23;19925;-81
2021/07/13 09:21:41;;;;;;;;;;;31.00;99.90;;;;;;1993651;23;21096;31
2021/07/13 09:24:15;;;;;;;;;;;31.00;99.90;;;;;;3895925;23;20173;31
2021/07/13 09:27:07;;;;;;;;;;;30.90;99.90;;;;;;2052119;23;21670;-81
2021/07/13 09:30:03;;;;;;;;;;;30.90;99.90;;;;;;3822107;22;19961;-82
2021/07/13 09:32:31;;;;;;;;;;;30.70;99.90;;;;;;3963582;23;19932;-81
2021/07/13 09:35:02;;;;;;;;;;;30.70;99.90;;;;;;3877240;22;19928;-81
2021/07/13 09:37:55;;;;;;;;;;;30.70;99.90;;;;;;3881423;22;19928;-81
2021/07/13 09:57:38;;;;;;;;;;;30.90;99.90;;;;;;3857776;22;19932;-81
2021/07/13 10:00:09;;;;;;;;;;;30.90;99.90;;;;;;3694392;22;19933;31
2021/07/13 10:02:37;;;;;;;;;;;31.00;99.90;;;;;;3734595;23;19936;-81
2021/07/13 10:05:08;;;;;;;;;;;31.10;99.90;;;;;;3703182;22;19933;-81
2021/07/13 10:07:43;;;;;;;;;;;31.10;99.90;;;;;;3776365;22;19932;-81
2021/07/13 10:10:15;;;;;;;;;;;31.10;99.90;;;;;;3884476;22;19944;-80
2021/07/13 10:15:35;;;;;;;;;;;31.10;99.90;;;;;;3885159;22;19953;31
2021/07/13 10:18:04;;;;;;;;;;;31.10;99.90;;;;;;3753693;23;19954;-80
2021/07/13 10:20:32;;;;;;;;;;;31.10;99.90;;;;;;2011952;22;20124;31
2021/07/13 10:23:02;;;;;;;;;;;31.00;99.90;;;;;;1464939;23;21121;31
2021/07/13 10:28:53;;;;;;;;;;;31.00;99.90;;;;;;2051701;23;19939;-82
2021/07/13 10:31:35;;;;;;;;;;;31.20;99.90;;;;;;3893344;22;19928;-82
2021/07/13 10:34:05;;;;;;;;;;;31.00;99.90;;;;;;1901574;23;20144;-81
2021/07/13 10:36:41;;;;;;;;;;;31.00;99.90;;;;;;4004297;22;19936;-81
2021/07/13 10:39:30;;;;;;;;;;;31.00;99.90;;;;;;3860456;22;19937;-84
2021/07/13 10:42:01;;;;;;;;;;;31.10;99.90;;;;;;3893235;22;19940;-81
2021/07/13 10:44:58;;;;;;;;;;;31.10;99.90;;;;;;2045141;22;19941;-82
2021/07/13 10:47:50;;;;;;;;;;;31.30;99.90;;;;;;3955261;23;23172;-83
2021/07/13 10:50:18;;;;;;;;;;;31.30;99.90;;;;;;3861418;22;20006;31
2021/07/13 10:53:10;;;;;;;;;;;31.20;99.90;;;;;;2050189;22;19932;-79
2021/07/13 10:58:45;;;;;;;;;;;31.20;99.90;;;;;;2045455;23;19932;-81
2021/07/13 11:01:43;;;;;;;;;;;31.20;99.90;;;;;;3960511;23;21633;-80
2021/07/13 11:04:12;;;;;;;;;;;31.30;99.90;;;;;;3700803;22;19936;-80
2021/07/13 11:07:05;;;;;;;;;;;31.30;99.90;;;;;;2038964;22;19958;-77
2021/07/13 11:09:58;;;;;;;;;;;31.20;99.90;;;;;;3904057;22;20929;-80
2021/07/13 11:12:27;;;;;;;;;;;31.20;99.90;;;;;;2042292;22;20101;-79
2021/07/13 11:21:02;;;;;;;;;;;30.90;99.90;;;;;;2057437;22;19943;-82
2021/07/13 11:23:30;;;;;;;;;;;31.00;99.90;;;;;;3984867;22;19934;31
2021/07/13 11:26:05;;;;;;;;;;;30.90;99.90;;;;;;1942540;23;20078;-80
2021/07/13 11:28:58;;;;;;;;;;;30.90;99.90;;;;;;2041200;23;20262;-82
2021/07/13 11:31:27;;;;;;;;;;;31.00;99.90;;;;;;4016248;22;19957;31
2021/07/13 11:34:02;;;;;;;;;;;30.90;99.90;;;;;;1295103;22;20078;-81
2021/07/13 11:36:38;;;;;;;;;;;30.90;99.90;;;;;;4020863;23;19948;-82
2021/07/13 11:42:23;;;;;;;;;;;30.90;99.90;;;;;;3748445;22;19972;31
2021/07/13 11:44:52;;;;;;;;;;;31.00;99.90;;;;;;3773573;22;19970;-85
2021/07/13 11:47:26;;;;;;;;;;;30.90;99.90;;;;;;1682116;22;20093;-81
2021/07/13 11:49:53;;;;;;;;;;;31.00;99.90;;;;;;3955219;22;19983;-81
2021/07/13 11:52:24;;;;;;;;;;;31.00;99.90;;;;;;1591092;22;20089;-80
2021/07/13 11:55:16;;;;;;;;;;;31.10;99.90;;;;;;3813322;23;20730;-81
2021/07/13 12:03:48;;;;;;;;;;;31.00;99.90;;;;;;3940713;22;19956;-80
2021/07/13 12:06:17;;;;;;;;;;;31.00;99.90;;;;;;3895869;22;19988;-81
2021/07/13 12:08:53;;;;;;;;;;;31.10;99.90;;;;;;3870361;22;19941;31
2021/07/13 12:11:45;;;;;;;;;;;31.10;99.90;;;;;;2032293;23;19932;-80
2021/07/13 12:14:17;;;;;;;;;;;31.10;99.90;;;;;;3801210;23;20016;-81
2021/07/13 12:16:48;;;;;;;;;;;31.00;99.90;;;;;;3794524;23;19926;-81
2021/07/13 12:19:18;;;;;;;;;;;31.00;99.90;;;;;;3865053;23;19960;31
2021/07/13 12:21:55;;;;;;;;;;;31.00;99.90;;;;;;3861569;22;19967;-81
2021/07/13 12:27:36;;;;;;;;;;;31.00;99.90;;;;;;2060709;22;19957;-80
2021/07/13 12:30:15;;;;;;;;;;;30.90;99.90;;;;;;3658950;22;19936;-81
2021/07/13 12:33:11;;;;;;;;;;;30.90;99.90;;;;;;2043369;23;19932;-80
2021/07/13 12:35:41;;;;;;;;;;;30.90;99.90;;;;;;3749898;22;19940;-81
2021/07/13 12:38:37;;;;;;;;;;;31.00;99.90;;;;;;4030310;22;20033;-81
2021/07/13 12:41:13;;;;;;;;;;;31.10;99.90;;;;;;3734344;23;19979;31
2021/07/13 12:44:06;;;;;;;;;;;31.10;99.90;;;;;;2050505;22;19941;-80
2021/07/13 12:46:36;;;;;;;;;;;31.10;99.90;;;;;;3754254;22;19927;31
2021/07/13 12:49:09;;;;;;;;;;;31.10;99.90;;;;;;2056869;22;20086;-80
2021/07/13 12:52:01;;;;;;;;;;;31.20;99.90;;;;;;2059597;22;19937;-79
2021/07/13 12:54:29;;;;;;;;;;;31.10;99.90;;;;;;1678875;22;20065;-80
2021/07/13 12:57:00;;;;;;;;;;;31.00;99.90;;;;;;1674820;22;20085;-81
2021/07/13 12:59:34;;;;;;;;;;;31.10;99.90;;;;;;3883102;22;19978;-81
2021/07/13 13:02:12;;;;;;;;;;;31.10;99.90;;;;;;3947268;22;20652;31
2021/07/13 13:04:43;;;;;;;;;;;31.10;99.90;;;;;;1432885;23;21389;31
2021/07/13 13:07:19;;;;;;;;;;;31.10;99.90;;;;;;1662887;23;20094;-81
2021/07/13 13:09:48;;;;;;;;;;;31.10;99.90;;;;;;2001740;22;21192;31
2021/07/13 13:12:41;;;;;;;;;;;31.10;99.90;;;;;;2035025;23;19932;-82
2021/07/13 13:15:09;;;;;;;;;;;31.00;99.90;;;;;;3972629;22;20618;31
2021/07/13 13:20:57;;;;;;;;;;;31.00;99.90;;;;;;2047576;22;19936;-78
2021/07/13 13:23:24;;;;;;;;;;;31.00;99.90;;;;;;3849330;22;19960;31
2021/07/13 13:26:16;;;;;;;;;;;31.00;99.90;;;;;;2048637;22;19931;-82
2021/07/13 13:28:44;;;;;;;;;;;31.00;99.90;;;;;;1909491;23;21127;31
2021/07/13 13:31:19;;;;;;;;;;;31.00;99.90;;;;;;1974313;22;21264;-81
2021/07/13 13:33:54;;;;;;;;;;;31.10;99.90;;;;;;3896796;22;19932;-80
2021/07/13 13:36:29;;;;;;;;;;;31.10;99.90;;;;;;3783072;22;19929;-81
2021/07/13 13:39:05;;;;;;;;;;;31.00;99.90;;;;;;4008298;22;19940;-82
2021/07/13 13:41:33;;;;;;;;;;;31.00;99.90;;;;;;3661084;22;19940;31
2021/07/13 13:44:25;;;;;;;;;;;31.10;99.90;;;;;;2051970;22;20040;-82
2021/07/13 13:46:53;;;;;;;;;;;31.10;99.90;;;;;;3700047;22;20873;31
2021/07/13 13:49:47;;;;;;;;;;;31.00;99.90;;;;;;2035675;23;19936;-80
2021/07/13 13:52:39;;;;;;;;;;;31.00;99.90;;;;;;3841560;23;19929;-82
2021/07/13 13:55:13;;;;;;;;;;;30.90;99.90;;;;;;2049822;22;20096;-82
2021/07/13 13:57:41;;;;;;;;;;;30.90;99.90;;;;;;3772749;23;19937;-82
2021/07/13 14:00:17;;;;;;;;;;;30.90;99.90;;;;;;1290714;23;20126;-80
2021/07/13 14:02:52;;;;;;;;;;;30.90;99.90;;;;;;2074863;23;20187;-83
2021/07/13 14:05:22;;;;;;;;;;;30.90;99.90;;;;;;3991456;22;20693;-82
2021/07/13 14:08:17;;;;;;;;;;;31.00;99.90;;;;;;2053969;22;19946;-81
2021/07/13 14:14:04;;;;;;;;;;;31.00;99.90;;;;;;2063533;22;19953;-82
2021/07/13 14:19:44;;;;;;;;;;;31.00;99.90;;;;;;2061404;22;19932;-82
2021/07/13 14:25:24;;;;;;;;;;;31.10;99.90;;;;;;2034065;23;19936;-82
2021/07/13 14:28:16;;;;;;;;;;;31.00;99.90;;;;;;3941730;22;20768;-82
2021/07/13 14:30:44;;;;;;;;;;;30.90;99.90;;;;;;1932739;22;21288;31
2021/07/13 14:36:12;;;;;;;;;;;30.80;99.90;;;;;;1395709;22;21333;31
2021/07/13 14:42:04;;;;;;;;;;;30.80;99.90;;;;;;2055385;22;19953;-82
2021/07/13 14:44:57;;;;;;;;;;;30.90;99.90;;;;;;3721921;22;19921;-80
2021/07/13 14:47:25;;;;;;;;;;;30.80;99.90;;;;;;3945747;22;20605;31
2021/07/13 14:50:00;;;;;;;;;;;30.90;99.90;;;;;;3892670;22;19932;-82
2021/07/13 14:52:35;;;;;;;;;;;30.90;99.90;;;;;;3845919;23;20036;-85
2021/07/13 14:55:05;;;;;;;;;;;30.80;99.90;;;;;;3657335;22;19931;-82
2021/07/13 14:57:35;;;;;;;;;;;30.80;99.90;;;;;;3993409;23;19964;31
2021/07/13 15:00:03;;;;;;;;;;;30.80;99.90;;;;;;1598409;23;20169;-82
2021/07/13 15:02:56;;;;;;;;;;;30.80;99.90;;;;;;2037242;23;19936;-80
2021/07/13 15:08:36;;;;;;;;;;;30.70;99.90;;;;;;2061556;22;19932;-82
2021/07/13 15:11:29;;;;;;;;;;;30.70;99.90;;;;;;3993999;23;19959;-84
2021/07/13 15:13:56;;;;;;;;;;;30.60;99.90;;;;;;4056182;23;19929;-82
2021/07/13 15:19:12;;;;;;;;;;;30.60;99.90;;;;;;1909254;22;20073;-81
2021/07/13 15:24:32;;;;;;;;;;;30.70;99.90;;;;;;4045494;22;20509;-82
2021/07/13 15:27:24;;;;;;;;;;;30.70;99.90;;;;;;2033783;23;20038;-81
2021/07/13 15:29:56;;;;;;;;;;;30.80;99.90;;;;;;3689650;22;20912;31
2021/07/13 15:32:49;;;;;;;;;;;30.80;99.90;;;;;;2047617;22;20100;-81
2021/07/13 15:35:25;;;;;;;;;;;30.80;99.90;;;;;;1961269;22;21142;-82
2021/07/13 15:37:59;;;;;;;;;;;30.90;99.90;;;;;;3740084;22;19970;-81
2021/07/13 15:43:50;;;;;;;;;;;30.80;99.90;;;;;;2060951;22;20040;-81
2021/07/13 15:46:20;;;;;;;;;;;30.80;99.90;;;;;;3696297;22;19928;-83
2021/07/13 15:52:12;;;;;;;;;;;30.80;99.90;;;;;;2046067;23;20660;-81
2021/07/13 15:54:42;;;;;;;;;;;30.80;99.90;;;;;;3994801;22;19952;-82
2021/07/13 16:00:11;;;;;;;;;;;30.80;99.90;;;;;;1785082;22;21284;31
2021/07/13 16:03:03;;;;;;;;;;;30.80;99.90;;;;;;2059094;22;19931;-81
2021/07/13 16:05:35;;;;;;;;;;;30.70;99.90;;;;;;3691632;22;20892;31
2021/07/13 16:08:28;;;;;;;;;;;30.70;99.90;;;;;;2038182;22;19954;-82
2021/07/13 16:13:51;;;;;;;;;;;30.70;99.90;;;;;;4062146;22;20636;31
2021/07/13 16:19:32;;;;;;;;;;;30.60;99.90;;;;;;2046284;23;19948;-81
2021/07/13 16:22:02;;;;;;;;;;;30.60;99.90;;;;;;3722889;22;19939;-81
2021/07/13 16:24:31;;;;;;;;;;;30.60;99.90;;;;;;1999041;23;22634;31
2021/07/13 16:26:59;;;;;;;;;;;30.60;99.90;;;;;;3728740;23;19977;31
2021/07/13 16:29:53;;;;;;;;;;;30.60;99.90;;;;;;2031084;22;20115;-82
2021/07/13 16:32:21;;;;;;;;;;;30.60;99.90;;;;;;3984534;22;19964;31
2021/07/13 16:34:50;;;;;;;;;;;30.60;99.90;;;;;;1673637;23;20093;-82
2021/07/13 16:37:32;;;;;;;;;;;30.50;99.90;;;;;;4057242;22;19931;-82
2021/07/13 16:40:25;;;;;;;;;;;30.60;99.90;;;;;;2053041;22;20811;-82
2021/07/13 16:46:23;;;;;;;;;;;30.50;99.90;;;;;;2054394;22;20206;-83
2021/07/13 16:48:58;;;;;;;;;;;30.50;99.90;;;;;;4026098;23;19990;-80
2021/07/13 16:51:27;;;;;;;;;;;30.50;99.90;;;;;;3949809;23;19940;31
2021/07/13 16:54:19;;;;;;;;;;;30.40;99.90;;;;;;2029779;23;19999;-82
2021/07/13 16:56:47;;;;;;;;;;;30.40;99.90;;;;;;3853293;22;20010;31
2021/07/13 17:11:12;;;;;;;;;;;30.30;99.90;;;;;;1832841;22;20077;-82
2021/07/13 17:14:04;;;;;;;;;;;30.20;99.90;;;;;;2060492;22;19932;-81
2021/07/13 17:19:44;;;;;;;;;;;30.30;99.90;;;;;;1447782;22;21420;-80
2021/07/13 17:22:36;;;;;;;;;;;30.20;99.90;;;;;;2053615;22;19935;-81
2021/07/13 17:28:00;;;;;;;;;;;30.20;99.90;;;;;;2053993;22;20104;-81
2021/07/13 17:30:28;;;;;;;;;;;30.10;99.90;;;;;;2051708;22;20089;-82
2021/07/13 17:35:56;;;;;;;;;;;30.10;99.90;;;;;;1768390;23;21246;31
2021/07/13 17:38:48;;;;;;;;;;;30.00;99.90;;;;;;2053274;22;20004;-80
2021/07/13 17:41:18;;;;;;;;;;;30.00;99.90;;;;;;3989817;23;20025;-82
2021/07/13 17:44:11;;;;;;;;;;;30.00;99.90;;;;;;2014583;23;19933;-81
2021/07/13 17:46:39;;;;;;;;;;;29.90;99.90;;;;;;3654444;23;21002;-83
2021/07/13 17:49:32;;;;;;;;;;;29.90;99.90;;;;;;1897094;22;19932;-81
2021/07/13 17:55:13;;;;;;;;;;;29.80;99.90;;;;;;2063778;22;19932;-82
2021/07/13 18:06:26;;;;;;;;;;;29.60;99.90;;;;;;1911514;22;20077;-80
2021/07/13 18:15:01;;;;;;;;;;;29.50;99.90;;;;;;1310622;22;20065;-81
2021/07/13 18:17:33;;;;;;;;;;;29.40;99.90;;;;;;2047733;22;20123;-82
2021/07/13 18:20:02;;;;;;;;;;;29.40;99.90;;;;;;4055739;22;19940;31
2021/07/13 18:22:54;;;;;;;;;;;29.30;99.90;;;;;;2053760;22;20002;-82
2021/07/13 18:28:34;;;;;;;;;;;29.20;99.90;;;;;;2063098;22;21675;-81
2021/07/13 18:31:26;;;;;;;;;;;29.20;99.90;;;;;;4014972;22;19978;-81
2021/07/13 18:34:18;;;;;;;;;;;29.10;99.90;;;;;;2054102;22;19966;-82
2021/07/13 18:40:05;;;;;;;;;;;29.00;99.90;;;;;;2061225;22;20905;-82
2021/07/13 18:42:57;;;;;;;;;;;29.00;99.90;;;;;;4049491;22;19973;-81
2021/07/13 18:45:24;;;;;;;;;;;28.90;99.90;;;;;;1900594;23;20077;-81
2021/07/13 18:47:53;;;;;;;;;;;28.80;99.90;;;;;;4014774;22;20660;31
2021/07/13 18:50:21;;;;;;;;;;;28.80;99.90;;;;;;1678727;22;20116;-81
2021/07/13 18:55:57;;;;;;;;;;;28.70;99.90;;;;;;1976256;22;20062;-82
2021/07/13 18:58:50;;;;;;;;;;;28.70;99.90;;;;;;2042204;23;19936;-82
2021/07/13 19:04:38;;;;;;;;;;;28.60;99.90;;;;;;2060457;22;19931;-81
2021/07/13 19:07:31;;;;;;;;;;;28.50;99.90;;;;;;2047434;22;19935;-79
2021/07/13 19:10:26;;;;;;;;;;;28.40;99.90;;;;;;3892854;23;19916;-84
2021/07/13 19:13:18;;;;;;;;;;;28.40;99.90;;;;;;2062772;22;19932;-82
2021/07/13 19:16:10;;;;;;;;;;;28.30;99.90;;;;;;3986827;23;19909;-80
2021/07/13 19:18:40;;;;;;;;;;;28.20;99.90;;;;;;4002401;23;19977;-82
2021/07/13 19:21:33;;;;;;;;;;;28.20;99.90;;;;;;2053941;22;19935;-81
2021/07/13 19:30:21;;;;;;;;;;;28.00;99.90;;;;;;2057968;22;19936;-80
2021/07/13 19:38:21;;;;;;;;;;;27.80;99.90;;;;;;2109081;22;19939;-80
2021/07/13 19:43:46;;;;;;;;;;;27.70;99.90;;;;;;1256305;22;21313;31
2021/07/13 19:46:15;;;;;;;;;;;27.70;99.90;;;;;;1888911;22;20094;-80
2021/07/13 19:52:02;;;;;;;;;;;27.60;99.90;;;;;;2060221;22;19933;-81